createdAt,value
2023-05-04T00:00:49.134Z,9.80
2023-05-04T00:03:16.269Z,9.80
2023-05-04T00:05:43.421Z,9.90
2023-05-04T00:08:10.837Z,9.80
2023-05-04T00:10:37.959Z,9.80
2023-05-04T00:13:05.018Z,9.80
2023-05-04T00:15:32.145Z,9.80
2023-05-04T00:17:59.285Z,9.80
2023-05-04T00:20:26.454Z,9.80
2023-05-04T00:22:53.532Z,9.80
2023-05-04T00:25:20.705Z,9.80
2023-05-04T00:27:47.701Z,9.80
2023-05-04T00:30:15.399Z,9.80
2023-05-04T00:32:42.552Z,9.80
2023-05-04T00:35:09.939Z,9.80
2023-05-04T00:37:36.974Z,9.80
2023-05-04T00:40:04.713Z,9.80
2023-05-04T00:42:31.946Z,9.80
2023-05-04T00:45:02.169Z,9.80
2023-05-04T00:47:30.114Z,9.80
2023-05-04T00:49:57.387Z,9.80
2023-05-04T00:52:24.637Z,9.80
2023-05-04T00:54:53.167Z,9.80
2023-05-04T00:57:20.207Z,9.80
2023-05-04T00:59:47.903Z,9.80
2023-05-04T01:02:15.026Z,9.80
2023-05-04T01:04:42.136Z,9.80
2023-05-04T01:07:45.959Z,9.80
2023-05-04T01:10:19.808Z,9.80
2023-05-04T01:13:04.291Z,9.80
2023-05-04T01:15:32.689Z,9.80
2023-05-04T01:17:59.803Z,9.70
2023-05-04T01:20:27.136Z,9.80
2023-05-04T01:22:56.460Z,9.80
2023-05-04T01:25:29.097Z,9.80
2023-05-04T01:28:08.849Z,9.80
2023-05-04T01:30:45.489Z,9.80
2023-05-04T01:33:15.360Z,9.80
2023-05-04T01:35:42.695Z,9.80
2023-05-04T01:38:09.788Z,9.80
2023-05-04T01:40:36.838Z,9.80
2023-05-04T01:43:03.871Z,9.80
2023-05-04T01:45:32.079Z,9.70
2023-05-04T01:47:59.329Z,9.70
2023-05-04T01:50:26.634Z,9.70
2023-05-04T01:52:53.679Z,9.70
2023-05-04T01:55:20.751Z,9.70
2023-05-04T01:57:47.814Z,9.70
2023-05-04T02:00:15.742Z,9.70
2023-05-04T02:02:43.366Z,9.70
2023-05-04T02:05:13.154Z,9.60
2023-05-04T02:07:40.208Z,9.70
2023-05-04T02:10:08.859Z,9.60
2023-05-04T02:12:36.012Z,9.60
2023-05-04T02:15:03.731Z,9.60
2023-05-04T02:17:31.239Z,9.60
2023-05-04T02:19:58.333Z,9.60
2023-05-04T02:22:25.546Z,9.50
2023-05-04T02:24:53.213Z,9.50
2023-05-04T02:27:20.993Z,9.50
2023-05-04T02:29:48.886Z,9.50
2023-05-04T02:32:15.938Z,9.50
2023-05-04T02:34:42.967Z,9.50
2023-05-04T02:37:10.174Z,9.50
2023-05-04T02:39:37.323Z,9.50
2023-05-04T02:42:04.482Z,9.50
2023-05-04T02:44:31.554Z,9.40
2023-05-04T02:46:58.615Z,9.50
2023-05-04T02:49:25.616Z,9.50
2023-05-04T02:51:52.714Z,9.40
2023-05-04T02:54:19.758Z,9.50
2023-05-04T02:56:46.850Z,9.40
2023-05-04T02:59:14.039Z,9.40
2023-05-04T03:01:41.236Z,9.40
2023-05-04T03:04:08.406Z,9.40
2023-05-04T03:06:36.367Z,9.40
2023-05-04T03:09:04.524Z,9.40
2023-05-04T03:11:31.640Z,9.40
2023-05-04T03:13:58.784Z,9.40
2023-05-04T03:16:26.105Z,9.40
2023-05-04T03:18:53.220Z,9.40
2023-05-04T03:21:20.369Z,9.40
2023-05-04T03:23:48.497Z,9.40
2023-05-04T03:26:15.785Z,9.40
2023-05-04T03:28:42.858Z,9.40
2023-05-04T03:31:09.970Z,9.40
2023-05-04T03:33:37.298Z,9.30
2023-05-04T03:36:04.743Z,9.30
2023-05-04T03:38:31.898Z,9.30
2023-05-04T03:40:59.655Z,9.30
2023-05-04T03:43:26.852Z,9.30
2023-05-04T03:45:55.352Z,9.30
2023-05-04T03:48:23.883Z,9.30
2023-05-04T03:50:51.890Z,9.30
2023-05-04T03:53:19.254Z,9.30
2023-05-04T03:55:46.521Z,9.30
2023-05-04T03:58:13.552Z,9.30
2023-05-04T04:00:40.877Z,9.30
2023-05-04T04:03:12.982Z,9.30
2023-05-04T04:05:40.334Z,9.30
2023-05-04T04:08:07.430Z,9.30
2023-05-04T04:10:35.580Z,9.30
2023-05-04T04:13:02.738Z,9.30
2023-05-04T04:15:29.889Z,9.30
2023-05-04T04:17:57.052Z,9.30
2023-05-04T04:20:24.237Z,9.30
2023-05-04T04:22:52.128Z,9.30
2023-05-04T04:25:19.349Z,9.30
2023-05-04T04:27:46.405Z,9.20
2023-05-04T04:30:14.208Z,9.20
2023-05-04T04:32:41.388Z,9.20
2023-05-04T04:35:08.916Z,9.20
2023-05-04T04:37:36.011Z,9.20
2023-05-04T04:40:04.337Z,9.20
2023-05-04T04:42:32.383Z,9.20
2023-05-04T04:44:59.678Z,9.20
2023-05-04T04:47:27.015Z,9.30
2023-05-04T04:49:54.228Z,9.20
2023-05-04T04:52:23.423Z,9.20
2023-05-04T04:54:50.465Z,9.20
2023-05-04T04:57:17.961Z,9.20
2023-05-04T04:59:45.012Z,9.20
2023-05-04T05:02:12.056Z,9.20
2023-05-04T05:04:42.910Z,9.20
2023-05-04T05:07:10.579Z,9.20
2023-05-04T05:09:38.505Z,9.10
2023-05-04T05:12:06.160Z,9.10
2023-05-04T05:14:33.272Z,9.20
2023-05-04T05:17:00.505Z,9.20
2023-05-04T05:19:28.013Z,9.20
2023-05-04T05:21:55.235Z,9.20
2023-05-04T05:24:22.379Z,9.20
2023-05-04T05:26:49.501Z,9.20
2023-05-04T05:29:16.519Z,9.20
2023-05-04T05:31:43.585Z,9.10
2023-05-04T05:34:10.681Z,9.20
2023-05-04T05:36:37.903Z,9.20
2023-05-04T05:39:04.996Z,9.20
2023-05-04T05:41:32.173Z,9.20
2023-05-04T05:43:59.661Z,9.20
2023-05-04T05:46:28.183Z,9.20
2023-05-04T05:48:55.341Z,9.20
2023-05-04T05:51:22.412Z,9.10
2023-05-04T05:53:49.461Z,9.20
2023-05-04T05:56:16.707Z,9.20
2023-05-04T05:58:43.815Z,9.20
2023-05-04T06:01:10.942Z,9.20
2023-05-04T06:03:38.331Z,9.20
2023-05-04T06:06:05.984Z,9.20
2023-05-04T06:08:33.128Z,9.20
2023-05-04T06:11:00.265Z,9.20
2023-05-04T06:13:27.296Z,9.20
2023-05-04T06:15:55.163Z,9.30
2023-05-04T06:18:22.365Z,9.30
2023-05-04T06:20:49.496Z,9.30
2023-05-04T06:23:16.678Z,9.30
2023-05-04T06:25:43.877Z,9.30
2023-05-04T06:28:10.982Z,9.30
2023-05-04T06:30:38.143Z,9.20
2023-05-04T06:33:05.324Z,9.30
2023-05-04T06:35:32.441Z,9.30
2023-05-04T06:37:59.535Z,9.30
2023-05-04T06:40:26.846Z,9.30
2023-05-04T06:42:54.189Z,9.30
2023-05-04T06:45:21.343Z,9.30
2023-05-04T06:47:48.473Z,9.40
2023-05-04T06:50:15.794Z,9.40
2023-05-04T06:52:45.316Z,9.40
2023-05-04T06:55:13.885Z,9.40
2023-05-04T06:57:41.033Z,9.50
2023-05-04T07:00:09.017Z,9.50
2023-05-04T07:02:36.090Z,9.50
2023-05-04T07:05:04.012Z,9.60
2023-05-04T07:07:31.106Z,9.60
2023-05-04T07:09:58.376Z,9.70
2023-05-04T07:12:26.340Z,9.80
2023-05-04T07:14:54.281Z,9.80
2023-05-04T07:17:22.113Z,9.90
2023-05-04T07:19:52.428Z,9.90
2023-05-04T07:22:20.979Z,10.00
2023-05-04T07:24:48.070Z,10.00
2023-05-04T07:27:15.215Z,9.90
2023-05-04T07:29:42.261Z,9.90
2023-05-04T07:32:09.517Z,9.90
2023-05-04T07:34:45.120Z,9.90
2023-05-04T07:37:13.336Z,9.90
2023-05-04T07:39:40.612Z,9.90
2023-05-04T07:42:08.719Z,9.90
2023-05-04T07:44:35.869Z,10.00
2023-05-04T07:47:03.004Z,10.00
2023-05-04T07:49:30.164Z,10.00
2023-05-04T07:51:57.327Z,10.00
2023-05-04T07:54:24.503Z,10.00
2023-05-04T07:56:51.835Z,10.00
2023-05-04T07:59:20.030Z,10.00
2023-05-04T08:01:47.529Z,10.00
2023-05-04T08:04:14.753Z,10.00
2023-05-04T08:06:42.036Z,10.10
2023-05-04T08:09:09.494Z,10.20
2023-05-04T08:11:38.277Z,10.20
2023-05-04T08:14:05.818Z,10.30
2023-05-04T08:16:32.958Z,10.30
2023-05-04T08:19:01.463Z,10.30
2023-05-04T08:21:28.615Z,10.30
2023-05-04T08:23:56.604Z,10.40
2023-05-04T08:26:24.319Z,10.40
2023-05-04T08:28:51.569Z,10.50
2023-05-04T08:31:18.889Z,10.50
2023-05-04T08:33:48.408Z,10.50
2023-05-04T08:36:15.735Z,10.50
2023-05-04T08:38:42.984Z,10.60
2023-05-04T08:41:11.107Z,10.60
2023-05-04T08:43:38.405Z,10.70
2023-05-04T08:46:06.926Z,10.70
2023-05-04T08:48:35.057Z,10.70
2023-05-04T08:51:04.703Z,10.70
2023-05-04T08:53:35.463Z,10.80
2023-05-04T08:56:04.371Z,10.80
2023-05-04T08:58:33.074Z,10.80
2023-05-04T09:01:01.858Z,10.90
2023-05-04T09:03:30.352Z,10.80
2023-05-04T09:05:59.000Z,10.80
2023-05-04T09:08:26.902Z,10.80
2023-05-04T09:10:53.970Z,10.80
2023-05-04T09:13:21.000Z,10.80
2023-05-04T09:16:00.465Z,10.90
2023-05-04T09:18:40.777Z,10.90
2023-05-04T09:21:08.628Z,10.90
2023-05-04T09:23:51.677Z,10.90
2023-05-04T09:26:32.615Z,11.00
2023-05-04T09:29:14.367Z,10.90
2023-05-04T09:31:52.635Z,10.90
2023-05-04T09:34:21.575Z,10.90
2023-05-04T09:37:02.340Z,10.90
2023-05-04T09:39:30.557Z,10.80
2023-05-04T09:41:57.746Z,10.80
2023-05-04T09:44:28.850Z,10.70
2023-05-04T09:46:58.308Z,10.60
2023-05-04T09:49:36.120Z,10.60
2023-05-04T09:52:05.778Z,10.50
2023-05-04T09:54:39.056Z,10.40
2023-05-04T09:57:14.294Z,10.40
2023-05-04T09:59:42.170Z,10.40
2023-05-04T10:02:21.809Z,10.30
2023-05-04T10:04:52.841Z,10.30
2023-05-04T10:07:20.982Z,10.30
2023-05-04T10:09:50.423Z,10.30
2023-05-04T10:12:18.001Z,10.30
2023-05-04T10:14:47.239Z,10.30
2023-05-04T10:17:45.882Z,10.40
2023-05-04T10:20:55.204Z,10.50
2023-05-04T10:23:23.948Z,10.40
2023-05-04T10:26:22.624Z,10.40
2023-05-04T10:29:06.757Z,10.30
2023-05-04T10:31:53.570Z,10.20
2023-05-04T10:34:31.742Z,10.20
2023-05-04T10:37:00.496Z,10.20
2023-05-04T10:39:32.812Z,10.10
2023-05-04T10:42:07.833Z,10.10
2023-05-04T10:44:49.624Z,10.20
2023-05-04T10:47:32.666Z,10.20
2023-05-04T10:50:08.099Z,10.10
2023-05-04T10:52:52.118Z,10.20
2023-05-04T10:55:20.012Z,10.30
2023-05-04T10:57:52.821Z,10.40
2023-05-04T11:00:20.806Z,10.50
2023-05-04T11:02:51.286Z,10.60
2023-05-04T11:05:20.181Z,10.70
2023-05-04T11:07:50.851Z,10.80
2023-05-04T11:10:23.350Z,10.80
2023-05-04T11:12:51.134Z,10.90
2023-05-04T11:15:19.179Z,10.90
2023-05-04T11:17:51.792Z,11.00
2023-05-04T11:20:24.267Z,11.10
2023-05-04T11:22:53.210Z,11.10
2023-05-04T11:25:30.845Z,11.20
2023-05-04T11:27:58.996Z,11.20
2023-05-04T11:30:34.184Z,11.20
2023-05-04T11:33:02.890Z,11.20
2023-05-04T11:35:30.547Z,11.10
2023-05-04T11:37:57.876Z,11.20
2023-05-04T11:40:27.053Z,11.10
2023-05-04T11:42:57.255Z,11.10
2023-05-04T11:45:32.591Z,11.00
2023-05-04T11:48:01.083Z,11.00
2023-05-04T11:50:29.573Z,11.10
2023-05-04T11:53:14.178Z,11.20
2023-05-04T11:55:42.122Z,11.20
2023-05-04T11:58:11.116Z,11.20
2023-05-04T12:00:40.126Z,11.20
2023-05-04T12:05:54.085Z,11.40
2023-05-04T12:08:34.197Z,11.40
2023-05-04T12:11:25.415Z,11.40
2023-05-04T12:14:03.501Z,11.40
2023-05-04T12:16:31.322Z,11.40
2023-05-04T12:19:17.019Z,11.30
2023-05-04T12:21:53.334Z,11.20
2023-05-04T12:24:24.806Z,11.20
2023-05-04T12:26:52.789Z,11.20
2023-05-04T12:29:19.848Z,11.20
2023-05-04T12:31:47.693Z,11.20
2023-05-04T12:34:14.821Z,11.20
2023-05-04T12:36:41.894Z,11.30
2023-05-04T12:39:09.171Z,11.40
2023-05-04T12:41:36.259Z,11.60
2023-05-04T12:44:03.396Z,11.70
2023-05-04T12:46:30.953Z,11.70
2023-05-04T12:48:58.012Z,11.70
2023-05-04T12:51:25.111Z,11.80
2023-05-04T12:53:52.098Z,11.70
2023-05-04T12:56:19.170Z,11.60
2023-05-04T12:58:46.162Z,11.60
2023-05-04T13:01:13.236Z,11.60
2023-05-04T13:03:40.646Z,11.60
2023-05-04T13:06:08.008Z,11.70
2023-05-04T13:08:35.016Z,11.80
2023-05-04T13:11:06.336Z,11.80
2023-05-04T13:13:34.406Z,11.70
2023-05-04T13:16:01.492Z,11.70
2023-05-04T13:18:28.623Z,11.60
2023-05-04T13:20:56.368Z,11.60
2023-05-04T13:23:23.691Z,11.60
2023-05-04T13:25:51.854Z,11.60
2023-05-04T13:28:19.245Z,11.70
2023-05-04T13:30:46.472Z,11.80
2023-05-04T13:33:27.977Z,11.90
2023-05-04T13:35:57.973Z,12.00
2023-05-04T13:38:25.765Z,12.00
2023-05-04T13:40:52.764Z,12.00
2023-05-04T13:43:19.858Z,12.00
2023-05-04T13:45:47.094Z,11.90
2023-05-04T13:48:14.274Z,11.90
2023-05-04T13:50:41.390Z,11.90
2023-05-04T13:53:11.228Z,11.80
2023-05-04T13:55:38.572Z,11.70
2023-05-04T13:58:05.627Z,11.60
2023-05-04T14:00:32.662Z,11.50
2023-05-04T14:02:59.907Z,11.40
2023-05-04T14:05:27.181Z,11.50
2023-05-04T14:07:54.153Z,11.50
2023-05-04T14:10:21.218Z,11.60
2023-05-04T14:12:48.254Z,11.70
2023-05-04T14:15:16.672Z,11.90
2023-05-04T14:17:43.850Z,12.00
2023-05-04T14:20:11.261Z,12.00
2023-05-04T14:22:41.189Z,12.00
2023-05-04T14:25:08.980Z,12.00
2023-05-04T14:27:36.249Z,12.00
2023-05-04T14:30:04.948Z,12.10
2023-05-04T14:32:32.006Z,12.20
2023-05-04T14:35:10.423Z,12.20
2023-05-04T14:37:39.937Z,12.20
2023-05-04T14:40:09.599Z,12.20
2023-05-04T14:42:37.361Z,12.30
2023-05-04T14:45:05.690Z,12.10
2023-05-04T14:47:33.916Z,12.10
2023-05-04T14:50:05.697Z,12.10
2023-05-04T14:52:33.056Z,12.20
2023-05-04T14:55:00.191Z,12.10
2023-05-04T14:57:27.284Z,12.10
2023-05-04T14:59:54.820Z,12.20
2023-05-04T15:02:21.987Z,12.20
2023-05-04T15:04:49.551Z,12.30
2023-05-04T15:07:18.685Z,12.40
2023-05-04T15:09:45.721Z,12.60
2023-05-04T15:12:12.814Z,12.80
2023-05-04T15:14:39.821Z,12.90
2023-05-04T15:17:07.378Z,12.90
2023-05-04T15:19:37.680Z,12.80
2023-05-04T15:22:05.704Z,12.70
2023-05-04T15:24:32.869Z,12.50
2023-05-04T15:27:00.016Z,12.30
2023-05-04T15:29:27.159Z,12.20
2023-05-04T15:31:55.026Z,12.20
2023-05-04T15:34:22.153Z,12.20
2023-05-04T15:36:49.192Z,12.20
2023-05-04T15:39:16.253Z,12.10
2023-05-04T15:41:43.360Z,12.10
2023-05-04T15:44:10.399Z,12.00
2023-05-04T15:46:37.482Z,12.00
2023-05-04T15:49:04.565Z,11.90
2023-05-04T15:51:32.167Z,11.90
2023-05-04T15:53:59.355Z,11.80
2023-05-04T15:56:26.381Z,11.70
2023-05-04T15:58:53.346Z,11.60
2023-05-04T16:01:20.381Z,11.70
2023-05-04T16:03:47.602Z,11.70
2023-05-04T16:06:15.770Z,11.60
2023-05-04T16:08:42.968Z,11.60
2023-05-04T16:11:10.064Z,11.60
2023-05-04T16:13:37.088Z,11.60
2023-05-04T16:16:04.787Z,11.60
2023-05-04T16:18:32.281Z,11.60
2023-05-04T16:20:59.307Z,11.60
2023-05-04T16:23:28.025Z,11.50
2023-05-04T16:25:55.181Z,11.40
2023-05-04T16:28:22.215Z,11.40
2023-05-04T16:30:49.966Z,11.30
2023-05-04T16:33:17.359Z,11.30
2023-05-04T16:35:44.541Z,11.30
2023-05-04T16:38:14.595Z,11.30
2023-05-04T16:40:42.619Z,11.20
2023-05-04T16:43:10.550Z,11.20
2023-05-04T16:45:38.238Z,11.10
2023-05-04T16:48:06.399Z,11.00
2023-05-04T16:50:33.768Z,11.00
2023-05-04T16:53:00.881Z,11.00
2023-05-04T16:55:28.027Z,10.90
2023-05-04T16:57:58.463Z,10.90
2023-05-04T17:00:25.996Z,10.90
2023-05-04T17:02:53.409Z,10.80
2023-05-04T17:05:21.170Z,10.80
2023-05-04T17:07:48.583Z,10.80
2023-05-04T17:10:15.648Z,10.90
2023-05-04T17:12:42.757Z,10.90
2023-05-04T17:15:10.540Z,10.90
2023-05-04T17:17:37.581Z,10.90
2023-05-04T17:20:05.582Z,10.80
2023-05-04T17:22:32.847Z,10.80
2023-05-04T17:24:59.972Z,10.70
2023-05-04T17:27:26.997Z,10.70
2023-05-04T17:29:54.014Z,10.70
2023-05-04T17:32:21.094Z,10.70
2023-05-04T17:34:48.203Z,10.70
2023-05-04T17:37:15.298Z,10.80
2023-05-04T17:39:42.348Z,10.70
2023-05-04T17:42:10.752Z,10.70
2023-05-04T17:44:37.831Z,10.60
2023-05-04T17:47:04.940Z,10.70
2023-05-04T17:49:31.942Z,10.80
2023-05-04T17:51:59.659Z,10.80
2023-05-04T17:54:27.162Z,10.80
2023-05-04T17:56:54.353Z,10.70
2023-05-04T17:59:21.511Z,10.70
2023-05-04T18:01:48.843Z,10.60
2023-05-04T18:04:15.976Z,10.60
2023-05-04T18:06:42.987Z,10.60
2023-05-04T18:13:22.981Z,10.60
2023-05-04T18:15:50.986Z,10.50
2023-05-04T18:18:18.017Z,10.60
2023-05-04T18:21:13.178Z,10.60
2023-05-04T18:23:40.195Z,10.60
2023-05-04T18:26:07.306Z,10.60
2023-05-04T18:28:34.564Z,10.60
2023-05-04T18:31:01.959Z,10.50
2023-05-04T18:33:29.138Z,10.40
2023-05-04T18:35:56.185Z,10.40
2023-05-04T18:38:23.219Z,10.40
2023-05-04T18:40:53.319Z,10.30
2023-05-04T18:43:20.393Z,10.40
2023-05-04T18:45:47.913Z,10.30
2023-05-04T18:48:14.895Z,10.30
2023-05-04T18:50:42.310Z,10.30
2023-05-04T18:53:09.300Z,10.30
2023-05-04T18:55:36.401Z,10.30
2023-05-04T18:58:03.987Z,10.20
2023-05-04T19:00:31.125Z,10.20
2023-05-04T19:02:58.319Z,10.10
2023-05-04T19:05:26.119Z,10.00
2023-05-04T19:07:53.184Z,10.00
2023-05-04T19:10:20.119Z,10.00
2023-05-04T19:12:47.299Z,10.00
2023-05-04T19:15:14.805Z,10.00
2023-05-04T19:17:41.906Z,10.00
2023-05-04T19:20:09.618Z,9.90
2023-05-04T19:22:36.773Z,9.90
2023-05-04T19:25:04.277Z,9.90
2023-05-04T19:27:31.382Z,9.90
2023-05-04T19:29:58.464Z,9.80
2023-05-04T19:32:25.530Z,9.80
2023-05-04T19:34:52.904Z,9.80
2023-05-04T19:37:20.386Z,9.70
2023-05-04T19:39:47.556Z,9.70
2023-05-04T19:42:14.697Z,9.70
2023-05-04T19:44:41.995Z,9.70
2023-05-04T19:47:09.300Z,9.70
2023-05-04T19:49:36.329Z,9.70
2023-05-04T19:52:03.412Z,9.70
2023-05-04T19:54:30.433Z,9.70
2023-05-04T19:56:57.657Z,9.60
2023-05-04T19:59:24.816Z,9.50
2023-05-04T20:01:51.905Z,9.50
2023-05-04T20:04:19.000Z,9.40
2023-05-04T20:06:46.238Z,9.40
2023-05-04T20:09:13.608Z,9.40
2023-05-04T20:11:40.726Z,9.40
2023-05-04T20:14:09.373Z,9.30
2023-05-04T20:16:36.483Z,9.30
2023-05-04T20:19:04.190Z,9.30
2023-05-04T20:21:32.290Z,9.30
2023-05-04T20:23:59.332Z,9.30
2023-05-04T20:26:26.379Z,9.30
2023-05-04T20:28:53.353Z,9.30
2023-05-04T20:31:20.526Z,9.20
2023-05-04T20:33:47.562Z,9.20
2023-05-04T20:36:14.629Z,9.20
2023-05-04T20:38:42.136Z,9.10
2023-05-04T20:41:09.795Z,9.10
2023-05-04T20:43:37.039Z,9.10
2023-05-04T20:46:07.087Z,9.10
2023-05-04T20:48:35.489Z,9.10
2023-05-04T20:51:14.019Z,9.10
2023-05-04T20:53:42.453Z,9.10
2023-05-04T20:56:09.604Z,9.10
2023-05-04T20:58:36.716Z,9.10
2023-05-04T21:01:04.632Z,9.10
2023-05-04T21:03:31.999Z,9.10
2023-05-04T21:05:59.280Z,9.10
2023-05-04T21:08:26.803Z,9.10
2023-05-04T21:10:53.848Z,9.10
2023-05-04T21:13:20.980Z,9.10
2023-05-04T21:15:48.127Z,9.10
2023-05-04T21:18:15.424Z,9.10
2023-05-04T21:20:42.545Z,9.10
2023-05-04T21:23:09.596Z,9.10
2023-05-04T21:25:36.678Z,9.00
2023-05-04T21:28:03.960Z,9.10
2023-05-04T21:30:31.509Z,9.00
2023-05-04T21:32:58.647Z,9.10
2023-05-04T21:35:30.725Z,9.10
2023-05-04T21:37:59.164Z,9.10
2023-05-04T21:40:27.553Z,9.10
2023-05-04T21:42:54.602Z,9.10
2023-05-04T21:45:21.733Z,9.10
2023-05-04T21:47:48.946Z,9.10
2023-05-04T21:50:16.399Z,9.10
2023-05-04T21:52:43.481Z,9.10
2023-05-04T21:55:10.586Z,9.10
2023-05-04T21:57:37.962Z,9.00
2023-05-04T22:00:12.025Z,9.00
2023-05-04T22:02:39.604Z,9.00
2023-05-04T22:05:06.799Z,9.00
2023-05-04T22:07:36.056Z,9.00
2023-05-04T22:10:05.159Z,9.00
2023-05-04T22:12:32.229Z,9.00
2023-05-04T22:14:59.232Z,9.00
2023-05-04T22:17:26.473Z,9.00
2023-05-04T22:19:53.500Z,9.00
2023-05-04T22:22:20.587Z,9.10
2023-05-04T22:24:47.596Z,9.00
2023-05-04T22:27:14.672Z,9.00
2023-05-04T22:29:41.684Z,9.00
2023-05-04T22:32:08.809Z,9.00
2023-05-04T22:34:36.028Z,9.00
2023-05-04T22:37:03.490Z,9.00
2023-05-04T22:39:30.457Z,9.00
2023-05-04T22:41:57.585Z,9.00
2023-05-04T22:44:24.581Z,9.00
2023-05-04T22:46:51.603Z,9.00
2023-05-04T22:49:18.660Z,9.00
2023-05-04T22:51:45.695Z,9.00
2023-05-04T22:54:12.660Z,9.00
2023-05-04T22:56:40.459Z,8.90
2023-05-04T22:59:07.485Z,8.90
2023-05-04T23:01:34.901Z,9.00
2023-05-04T23:04:01.898Z,9.00
2023-05-04T23:06:28.937Z,9.00
2023-05-04T23:08:55.898Z,9.00
2023-05-04T23:11:23.990Z,9.00
2023-05-04T23:13:51.089Z,9.00
2023-05-04T23:16:18.210Z,9.00
2023-05-04T23:18:45.231Z,8.90
2023-05-04T23:21:12.230Z,9.00
2023-05-04T23:23:39.206Z,9.00
2023-05-04T23:26:06.521Z,9.00
2023-05-04T23:28:33.548Z,9.00
2023-05-04T23:31:01.065Z,9.00
2023-05-04T23:33:28.030Z,9.00
2023-05-04T23:35:56.400Z,9.10
2023-05-04T23:38:23.438Z,9.00
2023-05-04T23:40:51.851Z,9.10
2023-05-04T23:43:18.849Z,9.10
2023-05-04T23:45:46.037Z,9.10
2023-05-04T23:48:12.993Z,9.00
2023-05-04T23:50:40.124Z,9.10
2023-05-04T23:53:07.099Z,9.00
2023-05-04T23:55:34.215Z,9.10
2023-05-04T23:58:01.293Z,9.10
